createdAt,value
2022-10-13T00:00:16.153Z,8.93
2022-10-13T00:02:44.161Z,9.02
2022-10-13T00:05:12.259Z,9.27
2022-10-13T00:07:40.288Z,8.65
2022-10-13T00:10:08.764Z,7.40
2022-10-13T00:12:37.458Z,9.30
2022-10-13T00:15:09.191Z,9.68
2022-10-13T00:17:37.519Z,8.32
2022-10-13T00:20:06.236Z,9.70
2022-10-13T00:22:34.267Z,8.02
2022-10-13T00:25:02.351Z,7.28
2022-10-13T00:27:30.499Z,9.98
2022-10-13T00:29:58.460Z,8.90
2022-10-13T00:32:27.813Z,9.85
2022-10-13T00:34:57.681Z,10.38
2022-10-13T00:37:25.725Z,9.35
2022-10-13T00:39:53.876Z,9.18
2022-10-13T00:42:23.390Z,9.52
2022-10-13T00:45:08.426Z,10.20
2022-10-13T00:47:41.784Z,9.50
2022-10-13T00:50:13.096Z,9.30
2022-10-13T00:52:43.059Z,9.30
2022-10-13T00:55:12.770Z,10.07
2022-10-13T00:57:42.813Z,8.40
2022-10-13T01:00:12.132Z,9.52
2022-10-13T01:02:41.499Z,9.73
2022-10-13T01:05:10.306Z,9.45
2022-10-13T01:07:38.484Z,8.40
2022-10-13T01:10:07.324Z,11.65
2022-10-13T01:12:45.400Z,10.10
2022-10-13T01:15:23.254Z,9.57
2022-10-13T01:18:01.879Z,9.50
2022-10-13T01:20:51.709Z,9.35
2022-10-13T01:23:52.356Z,9.60
2022-10-13T01:26:53.425Z,8.00
2022-10-13T01:29:54.226Z,8.88
2022-10-13T01:32:29.933Z,9.80
2022-10-13T01:35:07.140Z,10.43
2022-10-13T01:37:44.755Z,10.60
2022-10-13T01:40:17.907Z,9.98
2022-10-13T01:42:55.584Z,11.20
2022-10-13T01:45:31.351Z,9.30
2022-10-13T01:48:00.605Z,9.98
2022-10-13T01:50:29.480Z,7.78
2022-10-13T01:53:00.481Z,9.48
2022-10-13T01:55:29.665Z,9.65
2022-10-13T01:57:57.610Z,8.95
2022-10-13T02:00:27.435Z,8.00
2022-10-13T02:03:10.443Z,9.82
2022-10-13T02:05:49.311Z,9.90
2022-10-13T02:08:22.395Z,8.95
2022-10-13T02:10:55.548Z,9.73
2022-10-13T02:13:26.994Z,9.45
2022-10-13T02:16:00.331Z,9.50
2022-10-13T02:18:32.814Z,7.43
2022-10-13T02:21:01.631Z,8.13
2022-10-13T02:23:30.204Z,7.85
2022-10-13T02:26:00.132Z,10.25
2022-10-13T02:28:29.134Z,9.02
2022-10-13T02:30:58.515Z,9.45
2022-10-13T02:33:26.490Z,8.57
2022-10-13T02:35:54.426Z,9.20
2022-10-13T02:38:22.381Z,8.77
2022-10-13T02:40:50.335Z,9.25
2022-10-13T02:43:18.593Z,7.43
2022-10-13T02:45:46.550Z,8.30
2022-10-13T02:48:15.878Z,9.63
2022-10-13T02:50:43.832Z,10.30
2022-10-13T02:53:11.817Z,9.10
2022-10-13T02:55:39.732Z,8.85
2022-10-13T02:58:07.710Z,7.95
2022-10-13T03:00:35.671Z,8.82
2022-10-13T03:03:03.649Z,9.43
2022-10-13T03:05:33.200Z,9.00
2022-10-13T03:08:01.147Z,8.27
2022-10-13T03:10:29.515Z,8.50
2022-10-13T03:12:57.581Z,8.43
2022-10-13T03:15:26.064Z,7.97
2022-10-13T03:17:54.048Z,8.63
2022-10-13T03:20:22.006Z,9.18
2022-10-13T03:22:51.299Z,8.35
2022-10-13T03:25:19.297Z,9.07
2022-10-13T03:27:47.540Z,8.55
2022-10-13T03:30:15.727Z,8.75
2022-10-13T03:32:43.965Z,8.73
2022-10-13T03:35:11.995Z,7.88
2022-10-13T03:37:39.974Z,9.85
2022-10-13T03:40:10.918Z,8.95
2022-10-13T03:42:40.153Z,6.82
2022-10-13T03:45:09.976Z,7.63
2022-10-13T03:47:38.571Z,9.63
2022-10-13T03:50:07.636Z,9.95
2022-10-13T03:52:35.607Z,9.75
2022-10-13T03:55:04.135Z,10.65
2022-10-13T03:57:33.455Z,9.35
2022-10-13T04:00:01.721Z,9.90
2022-10-13T04:02:29.691Z,8.02
2022-10-13T04:04:57.684Z,9.70
2022-10-13T04:07:25.684Z,8.43
2022-10-13T04:09:54.042Z,9.55
2022-10-13T04:12:22.243Z,10.38
2022-10-13T04:14:51.681Z,9.82
2022-10-13T04:17:19.658Z,9.80
2022-10-13T04:19:47.677Z,11.25
2022-10-13T04:22:15.640Z,9.55
2022-10-13T04:24:43.668Z,10.15
2022-10-13T04:27:11.604Z,10.18
2022-10-13T04:29:39.532Z,11.07
2022-10-13T04:32:08.884Z,10.02
2022-10-13T04:34:37.004Z,7.25
2022-10-13T04:37:04.998Z,9.55
2022-10-13T04:39:33.451Z,8.73
2022-10-13T04:42:01.429Z,11.35
2022-10-13T04:44:29.375Z,9.90
2022-10-13T04:46:57.350Z,8.20
2022-10-13T04:49:27.099Z,9.30
2022-10-13T04:51:55.057Z,10.05
2022-10-13T04:54:23.070Z,9.25
2022-10-13T04:56:51.190Z,10.43
2022-10-13T04:59:19.181Z,10.25
2022-10-13T05:01:47.145Z,7.60
2022-10-13T05:04:15.108Z,10.75
2022-10-13T05:07:12.697Z,9.20
2022-10-13T05:09:32.720Z,8.00
2022-10-13T05:12:00.706Z,8.20
2022-10-13T05:14:28.782Z,7.20
2022-10-13T05:16:56.749Z,11.20
2022-10-13T05:19:24.742Z,6.80
2022-10-13T05:21:54.113Z,10.93
2022-10-13T05:24:31.025Z,8.23
2022-10-13T05:26:59.260Z,6.65
2022-10-13T05:29:27.357Z,10.70
2022-10-13T05:31:55.324Z,10.40
2022-10-13T05:34:23.307Z,10.18
2022-10-13T05:36:51.258Z,6.22
2022-10-13T05:39:20.656Z,10.88
2022-10-13T05:41:48.646Z,6.50
2022-10-13T05:44:17.482Z,8.75
2022-10-13T05:46:45.985Z,11.30
2022-10-13T05:49:13.948Z,10.90
2022-10-13T05:51:44.504Z,10.25
2022-10-13T05:54:18.548Z,8.30
2022-10-13T05:56:53.669Z,8.52
2022-10-13T05:59:27.133Z,8.88
2022-10-13T06:01:55.931Z,10.90
2022-10-13T06:04:27.873Z,9.82
2022-10-13T06:06:55.877Z,9.55
2022-10-13T06:09:24.131Z,8.32
2022-10-13T06:11:53.444Z,10.77
2022-10-13T06:14:21.404Z,10.18
2022-10-13T06:16:49.349Z,10.02
2022-10-13T06:19:17.374Z,10.35
2022-10-13T06:21:45.339Z,10.30
2022-10-13T06:24:13.353Z,10.48
2022-10-13T06:26:41.392Z,6.97
2022-10-13T06:29:10.849Z,9.77
2022-10-13T06:31:38.907Z,6.55
2022-10-13T06:34:07.515Z,9.40
2022-10-13T06:36:36.299Z,9.13
2022-10-13T06:39:04.473Z,10.45
2022-10-13T06:41:32.422Z,8.00
2022-10-13T06:44:00.454Z,9.52
2022-10-13T06:46:29.826Z,11.23
2022-10-13T06:48:57.854Z,8.30
2022-10-13T06:51:25.823Z,9.85
2022-10-13T06:53:53.797Z,10.60
2022-10-13T06:56:21.774Z,11.45
2022-10-13T06:58:49.742Z,10.80
2022-10-13T07:01:17.740Z,9.93
2022-10-13T07:03:49.727Z,10.52
2022-10-13T07:06:18.467Z,11.27
2022-10-13T07:08:46.880Z,9.43
2022-10-13T07:11:17.288Z,10.70
2022-10-13T07:13:46.950Z,10.82
2022-10-13T07:16:16.279Z,8.55
2022-10-13T07:18:44.335Z,9.93
2022-10-13T07:21:13.695Z,11.43
2022-10-13T07:23:41.789Z,10.13
2022-10-13T07:26:10.763Z,10.55
2022-10-13T07:28:38.907Z,11.57
2022-10-13T07:31:11.860Z,10.38
2022-10-13T07:33:40.735Z,9.93
2022-10-13T07:36:10.439Z,8.77
2022-10-13T07:38:39.865Z,11.00
2022-10-13T07:41:10.151Z,10.13
2022-10-13T07:43:38.083Z,10.35
2022-10-13T07:46:07.742Z,10.70
2022-10-13T07:48:36.867Z,8.23
2022-10-13T07:51:07.230Z,9.13
2022-10-13T07:53:36.138Z,10.30
2022-10-13T07:56:08.001Z,11.13
2022-10-13T07:58:40.053Z,8.90
2022-10-13T08:01:08.731Z,9.70
2022-10-13T08:06:10.432Z,9.98
2022-10-13T08:08:40.173Z,9.32
2022-10-13T08:11:16.137Z,8.68
2022-10-13T08:13:47.928Z,9.20
2022-10-13T08:16:15.888Z,9.38
2022-10-13T08:18:44.043Z,9.73
2022-10-13T08:24:04.843Z,9.50
2022-10-13T08:26:34.601Z,8.80
2022-10-13T08:29:20.861Z,8.65
2022-10-13T08:31:50.394Z,9.75
2022-10-13T08:34:18.402Z,10.02
2022-10-13T08:36:46.404Z,9.63
2022-10-13T08:39:14.372Z,7.88
2022-10-13T08:41:45.047Z,8.60
2022-10-13T08:47:14.187Z,9.20
2022-10-13T08:49:43.427Z,8.25
2022-10-13T08:52:17.905Z,9.70
2022-10-13T08:54:46.160Z,9.30
2022-10-13T08:57:15.621Z,9.57
2022-10-13T08:59:43.627Z,8.02
2022-10-13T09:02:14.760Z,9.25
2022-10-13T09:04:48.740Z,8.93
2022-10-13T09:07:21.802Z,8.32
2022-10-13T09:09:51.989Z,9.45
2022-10-13T09:12:24.299Z,9.13
2022-10-13T09:14:59.643Z,8.68
2022-10-13T09:17:28.129Z,8.27
2022-10-13T09:20:01.619Z,8.55
2022-10-13T09:22:31.435Z,8.15
2022-10-13T09:25:20.319Z,9.05
2022-10-13T09:27:52.271Z,8.07
2022-10-13T09:30:30.026Z,7.80
2022-10-13T09:33:17.346Z,7.43
2022-10-13T09:35:47.092Z,8.38
2022-10-13T09:38:17.381Z,8.68
2022-10-13T09:40:59.277Z,7.20
2022-10-13T09:43:33.200Z,7.30
2022-10-13T09:46:03.588Z,7.88
2022-10-13T09:48:33.866Z,7.78
2022-10-13T09:51:02.781Z,8.70
2022-10-13T09:53:33.509Z,8.88
2022-10-13T09:56:19.831Z,8.85
2022-10-13T09:58:55.122Z,7.70
2022-10-13T10:01:26.647Z,7.88
2022-10-13T10:03:56.029Z,7.63
2022-10-13T10:06:27.727Z,9.18
2022-10-13T10:09:04.206Z,7.95
2022-10-13T10:11:38.945Z,8.65
2022-10-13T10:14:18.273Z,8.15
2022-10-13T10:16:54.057Z,8.27
2022-10-13T10:19:28.344Z,8.30
2022-10-13T10:22:04.241Z,9.27
2022-10-13T10:24:43.681Z,8.25
2022-10-13T10:27:21.643Z,9.30
2022-10-13T10:29:56.155Z,8.60
2022-10-13T10:32:30.126Z,8.52
2022-10-13T10:35:03.085Z,7.82
2022-10-13T10:37:52.030Z,8.85
2022-10-13T10:40:33.159Z,8.77
2022-10-13T10:43:29.659Z,8.77
2022-10-13T10:46:01.034Z,8.98
2022-10-13T10:48:34.803Z,7.10
2022-10-13T10:51:03.453Z,9.18
2022-10-13T10:53:38.160Z,8.50
2022-10-13T10:56:15.908Z,7.73
2022-10-13T10:58:52.015Z,8.75
2022-10-13T11:01:32.233Z,9.52
2022-10-13T11:04:24.760Z,9.60
2022-10-13T11:06:52.761Z,8.35
2022-10-13T11:09:54.051Z,8.95
2022-10-13T11:12:25.123Z,9.23
2022-10-13T11:15:09.407Z,8.45
2022-10-13T11:17:40.879Z,10.15
2022-10-13T11:20:56.324Z,8.35
2022-10-13T11:23:35.064Z,10.18
2022-10-13T11:26:35.824Z,10.77
2022-10-13T11:29:03.821Z,9.88
2022-10-13T11:31:48.905Z,10.73
2022-10-13T11:34:32.694Z,11.20
2022-10-13T11:37:03.063Z,11.00
2022-10-13T11:40:05.018Z,10.55
2022-10-13T11:43:08.255Z,8.30
2022-10-13T11:46:08.130Z,11.90
2022-10-13T11:49:13.453Z,11.48
2022-10-13T11:51:54.319Z,11.02
2022-10-13T11:54:32.564Z,11.23
2022-10-13T11:57:00.622Z,11.20
2022-10-13T11:59:31.097Z,10.50
2022-10-13T12:02:01.133Z,10.93
2022-10-13T12:04:29.726Z,11.85
2022-10-13T12:07:01.935Z,9.98
2022-10-13T12:09:32.414Z,11.68
2022-10-13T12:12:03.906Z,11.60
2022-10-13T12:17:04.474Z,11.73
2022-10-13T12:19:33.177Z,11.77
2022-10-13T12:22:02.921Z,12.13
2022-10-13T12:24:31.880Z,11.82
2022-10-13T12:27:00.393Z,10.73
2022-10-13T12:29:32.273Z,10.98
2022-10-13T12:32:06.069Z,10.00
2022-10-13T12:34:36.436Z,8.88
2022-10-13T12:37:12.621Z,11.73
2022-10-13T12:39:40.993Z,9.65
2022-10-13T12:42:12.448Z,8.85
2022-10-13T12:44:41.059Z,12.27
2022-10-13T12:47:37.743Z,10.15
2022-10-13T12:50:34.312Z,12.73
2022-10-13T12:53:19.451Z,11.52
2022-10-13T12:55:58.802Z,11.87
2022-10-13T12:58:32.379Z,11.68
2022-10-13T13:01:21.462Z,11.80
2022-10-13T13:03:56.009Z,11.70
2022-10-13T13:06:38.238Z,11.23
2022-10-13T13:09:33.215Z,11.77
2022-10-13T13:12:23.354Z,11.68
2022-10-13T13:14:54.977Z,12.32
2022-10-13T13:17:45.760Z,10.57
2022-10-13T13:20:23.224Z,12.35
2022-10-13T13:22:51.881Z,13.63
2022-10-13T13:25:21.400Z,13.75
2022-10-13T13:27:49.469Z,13.05
2022-10-13T13:30:20.422Z,12.32
2022-10-13T13:32:48.660Z,14.50
2022-10-13T13:35:16.833Z,14.40
2022-10-13T13:37:48.900Z,13.27
2022-10-13T13:40:19.093Z,13.80
2022-10-13T13:42:48.582Z,9.23
2022-10-13T13:45:17.788Z,14.32
2022-10-13T13:47:45.937Z,10.27
2022-10-13T13:50:18.473Z,13.98
2022-10-13T13:52:46.558Z,13.93
2022-10-13T13:55:14.772Z,15.45
2022-10-13T13:57:43.506Z,12.27
2022-10-13T14:00:15.403Z,13.23
2022-10-13T14:02:44.550Z,14.60
2022-10-13T14:05:13.458Z,13.85
2022-10-13T14:07:42.098Z,14.15
2022-10-13T14:10:11.377Z,14.90
2022-10-13T14:12:39.427Z,10.43
2022-10-13T14:15:08.450Z,13.55
2022-10-13T14:17:37.810Z,13.23
2022-10-13T14:20:08.327Z,11.55
2022-10-13T14:22:38.614Z,10.73
2022-10-13T14:25:07.466Z,9.98
2022-10-13T14:27:36.688Z,11.70
2022-10-13T14:30:05.725Z,11.95
2022-10-13T14:32:34.031Z,9.52
2022-10-13T14:35:03.585Z,10.57
2022-10-13T14:37:33.618Z,11.75
2022-10-13T14:40:02.322Z,9.45
2022-10-13T14:42:30.613Z,13.77
2022-10-13T14:44:58.584Z,10.77
2022-10-13T14:47:27.822Z,12.20
2022-10-13T14:49:55.808Z,11.55
2022-10-13T14:52:25.110Z,10.15
2022-10-13T14:54:53.069Z,12.45
2022-10-13T14:57:21.362Z,10.15
2022-10-13T14:59:49.520Z,13.95
2022-10-13T15:02:17.584Z,13.55
2022-10-13T15:04:45.516Z,12.40
2022-10-13T15:07:13.467Z,13.63
2022-10-13T15:09:53.116Z,12.10
2022-10-13T15:12:29.099Z,10.68
2022-10-13T15:14:57.056Z,15.05
2022-10-13T15:17:25.128Z,13.63
2022-10-13T15:19:53.179Z,13.02
2022-10-13T15:22:21.450Z,10.90
2022-10-13T15:24:51.007Z,12.65
2022-10-13T15:27:18.979Z,13.75
2022-10-13T15:29:46.971Z,12.40
2022-10-13T15:32:17.996Z,12.95
2022-10-13T15:34:46.231Z,11.85
2022-10-13T15:37:14.362Z,11.68
2022-10-13T15:39:42.342Z,10.27
2022-10-13T15:42:12.944Z,11.98
2022-10-13T15:45:08.164Z,12.45
2022-10-13T15:47:28.860Z,12.93
2022-10-13T15:49:56.930Z,12.18
2022-10-13T15:52:25.270Z,12.30
2022-10-13T15:54:53.460Z,11.95
2022-10-13T15:57:22.798Z,12.05
2022-10-13T15:59:50.774Z,12.65
2022-10-13T16:02:19.044Z,10.95
2022-10-13T16:04:47.691Z,12.38
2022-10-13T16:07:15.680Z,7.75
2022-10-13T16:09:44.034Z,12.18
2022-10-13T16:12:12.348Z,11.77
2022-10-13T16:14:42.016Z,12.02
2022-10-13T16:17:10.325Z,11.13
2022-10-13T16:19:38.644Z,10.35
2022-10-13T16:22:06.996Z,11.05
2022-10-13T16:24:35.288Z,11.13
2022-10-13T16:27:03.566Z,9.27
2022-10-13T16:29:31.865Z,10.25
2022-10-13T16:32:01.585Z,8.63
2022-10-13T16:34:30.031Z,8.48
2022-10-13T16:36:58.464Z,8.20
2022-10-13T16:39:28.319Z,8.18
2022-10-13T16:41:56.958Z,7.70
2022-10-13T16:44:25.293Z,5.82
2022-10-13T16:46:55.124Z,7.13
2022-10-13T16:49:24.790Z,8.57
2022-10-13T16:51:53.305Z,7.68
2022-10-13T16:54:21.568Z,5.78
2022-10-13T16:56:51.414Z,7.03
2022-10-13T16:59:19.677Z,7.03
2022-10-13T17:01:48.870Z,7.13
2022-10-13T17:04:21.251Z,6.32
2022-10-13T17:06:51.845Z,5.45
2022-10-13T17:09:20.155Z,6.78
2022-10-13T17:11:48.606Z,7.05
2022-10-13T17:14:16.851Z,6.90
2022-10-13T17:16:45.209Z,6.78
2022-10-13T17:19:13.464Z,6.72
2022-10-13T17:21:41.712Z,7.35
2022-10-13T17:24:11.605Z,6.60
2022-10-13T17:26:40.066Z,6.03
2022-10-13T17:29:08.351Z,7.57
2022-10-13T17:31:36.643Z,5.13
2022-10-13T17:34:06.239Z,6.85
2022-10-13T17:36:34.681Z,5.78
2022-10-13T17:39:04.651Z,5.18
2022-10-13T17:41:34.333Z,6.45
2022-10-13T17:44:02.645Z,5.78
2022-10-13T17:46:37.552Z,5.65
2022-10-13T17:49:07.555Z,6.72
2022-10-13T17:51:35.884Z,7.05
2022-10-13T17:54:04.221Z,4.63
2022-10-13T17:56:33.912Z,5.80
2022-10-13T17:59:02.900Z,7.55
2022-10-13T18:01:32.653Z,7.47
2022-10-13T18:04:02.068Z,7.72
2022-10-13T18:06:37.072Z,8.55
2022-10-13T18:09:06.665Z,8.23
2022-10-13T18:11:36.970Z,7.80
2022-10-13T18:14:05.477Z,6.93
2022-10-13T18:16:33.946Z,7.75
2022-10-13T18:19:02.362Z,7.88
2022-10-13T18:21:30.649Z,7.55
2022-10-13T18:23:59.935Z,6.97
2022-10-13T18:26:28.718Z,8.00
2022-10-13T18:28:58.716Z,8.77
2022-10-13T18:31:28.539Z,6.68
2022-10-13T18:33:57.476Z,7.72
2022-10-13T18:36:27.111Z,7.30
2022-10-13T18:38:56.684Z,6.00
2022-10-13T18:41:25.816Z,14.05
2022-10-13T18:43:54.185Z,12.05
2022-10-13T18:46:23.965Z,9.02
2022-10-13T18:48:52.269Z,8.43
2022-10-13T18:51:21.267Z,9.45
2022-10-13T18:53:51.544Z,13.32
2022-10-13T18:56:20.623Z,14.80
2022-10-13T18:58:49.159Z,15.30
2022-10-13T19:01:18.807Z,12.15
2022-10-13T19:03:49.177Z,10.27
2022-10-13T19:06:18.232Z,12.15
2022-10-13T19:08:46.963Z,12.20
2022-10-13T19:11:16.389Z,10.73
2022-10-13T19:13:44.898Z,10.02
2022-10-13T19:16:13.768Z,10.73
2022-10-13T19:18:42.299Z,11.00
2022-10-13T19:21:12.127Z,10.30
2022-10-13T19:23:40.523Z,9.18
2022-10-13T19:26:14.025Z,11.13
2022-10-13T19:28:43.726Z,11.88
2022-10-13T19:31:12.981Z,11.73
2022-10-13T19:33:44.775Z,11.55
2022-10-13T19:36:22.941Z,12.35
2022-10-13T19:38:51.704Z,11.93
2022-10-13T19:41:20.029Z,12.68
2022-10-13T19:43:48.328Z,11.60
2022-10-13T19:46:16.956Z,11.30
2022-10-13T19:48:45.393Z,11.93
2022-10-13T19:51:15.217Z,10.48
2022-10-13T19:53:43.576Z,10.40
2022-10-13T19:56:20.228Z,11.82
2022-10-13T19:58:48.532Z,10.50
2022-10-13T20:01:18.947Z,10.10
2022-10-13T20:03:47.480Z,9.43
2022-10-13T20:06:17.234Z,18.67
2022-10-13T20:08:46.088Z,20.70
2022-10-13T20:11:17.304Z,14.50
2022-10-13T20:13:49.566Z,13.27
2022-10-13T20:16:19.300Z,17.20
2022-10-13T20:18:52.119Z,14.32
2022-10-13T20:21:21.782Z,15.43
2022-10-13T20:23:50.752Z,13.50
2022-10-13T20:26:19.442Z,11.80
2022-10-13T20:28:48.525Z,11.32
2022-10-13T20:31:17.652Z,11.02
2022-10-13T20:33:46.929Z,12.38
2022-10-13T20:36:16.127Z,12.82
2022-10-13T20:38:46.761Z,16.20
2022-10-13T20:41:16.805Z,15.52
2022-10-13T20:43:45.387Z,22.13
2022-10-13T20:46:13.649Z,21.80
2022-10-13T20:49:09.306Z,17.48
2022-10-13T20:51:31.165Z,26.48
2022-10-13T20:54:00.803Z,23.08
2022-10-13T20:56:29.084Z,13.88
2022-10-13T20:58:57.401Z,12.30
2022-10-13T21:01:25.690Z,14.30
2022-10-13T21:03:54.084Z,12.82
2022-10-13T21:06:23.366Z,14.60
2022-10-13T21:08:51.688Z,13.93
2022-10-13T21:11:21.963Z,16.13
2022-10-13T21:13:50.760Z,13.73
2022-10-13T21:16:20.296Z,15.13
2022-10-13T21:18:49.288Z,12.93
2022-10-13T21:21:18.995Z,12.75
2022-10-13T21:23:47.297Z,13.07
2022-10-13T21:26:21.153Z,13.23
2022-10-13T21:28:52.018Z,13.38
2022-10-13T21:31:21.722Z,14.15
2022-10-13T21:33:50.279Z,14.43
2022-10-13T21:36:19.770Z,13.75
2022-10-13T21:38:48.418Z,17.40
2022-10-13T21:41:16.735Z,17.50
2022-10-13T21:43:45.112Z,16.98
2022-10-13T21:46:15.486Z,15.55
2022-10-13T21:48:44.121Z,17.63
2022-10-13T21:51:13.397Z,14.77
2022-10-13T21:53:41.841Z,13.00
2022-10-13T21:56:11.547Z,13.05
2022-10-13T21:58:40.254Z,13.05
2022-10-13T22:01:08.635Z,13.13
2022-10-13T22:03:38.312Z,13.60
2022-10-13T22:06:07.391Z,13.98
2022-10-13T22:08:38.831Z,13.43
2022-10-13T22:11:07.791Z,12.93
2022-10-13T22:13:36.163Z,13.27
2022-10-13T22:16:05.668Z,13.63
2022-10-13T22:18:33.968Z,12.65
2022-10-13T22:21:04.190Z,13.23
2022-10-13T22:23:32.472Z,13.15
2022-10-13T22:26:01.127Z,13.15
2022-10-13T22:28:33.466Z,14.30
2022-10-13T22:31:05.702Z,13.20
2022-10-13T22:33:35.142Z,11.88
2022-10-13T22:36:08.937Z,13.25
2022-10-13T22:38:37.346Z,13.32
2022-10-13T22:41:06.020Z,13.77
2022-10-13T22:43:34.358Z,13.55
2022-10-13T22:46:02.884Z,13.98
2022-10-13T22:48:31.167Z,13.57
2022-10-13T22:50:59.595Z,13.23
2022-10-13T22:53:29.183Z,13.43
2022-10-13T22:55:57.449Z,14.05
2022-10-13T22:58:25.729Z,13.45
2022-10-13T23:00:54.001Z,12.35
2022-10-13T23:03:22.462Z,13.00
2022-10-13T23:05:50.818Z,13.70
2022-10-13T23:08:19.045Z,13.15
2022-10-13T23:10:48.654Z,13.02
2022-10-13T23:13:16.943Z,12.90
2022-10-13T23:15:45.218Z,13.00
2022-10-13T23:18:13.500Z,13.15
2022-10-13T23:20:41.887Z,12.43
2022-10-13T23:23:10.585Z,12.65
2022-10-13T23:25:39.549Z,12.27
2022-10-13T23:28:09.162Z,10.93
2022-10-13T23:30:38.405Z,11.98
2022-10-13T23:33:06.678Z,11.55
2022-10-13T23:35:34.944Z,11.57
2022-10-13T23:38:03.214Z,11.48
2022-10-13T23:40:31.468Z,12.40
2022-10-13T23:42:59.735Z,12.57
2022-10-13T23:45:29.355Z,12.30
2022-10-13T23:47:57.605Z,11.65
2022-10-13T23:50:25.856Z,12.68
2022-10-13T23:52:54.126Z,12.55
2022-10-13T23:55:22.380Z,12.15
2022-10-13T23:57:50.607Z,11.48
